createdAt,value
2022-10-03T00:01:53.909Z,4.10
2022-10-03T00:04:38.483Z,4.20
2022-10-03T00:07:19.742Z,4.67
2022-10-03T00:10:02.868Z,4.20
2022-10-03T00:12:47.274Z,3.90
2022-10-03T00:15:21.994Z,4.00
2022-10-03T00:18:02.166Z,4.23
2022-10-03T00:20:50.250Z,4.20
2022-10-03T00:23:25.455Z,4.10
2022-10-03T00:26:26.303Z,4.97
2022-10-03T00:29:11.838Z,4.80
2022-10-03T00:31:48.804Z,4.50
2022-10-03T00:34:27.176Z,3.67
2022-10-03T00:37:22.531Z,3.90
2022-10-03T00:40:31.133Z,4.23
2022-10-03T00:43:28.694Z,4.27
2022-10-03T00:46:22.422Z,4.07
2022-10-03T00:49:24.903Z,4.17
2022-10-03T00:52:07.112Z,4.33
2022-10-03T00:55:01.577Z,3.83
2022-10-03T00:57:57.634Z,4.73
2022-10-03T01:00:29.207Z,3.80
2022-10-03T01:03:17.776Z,4.57
2022-10-03T01:05:54.014Z,4.73
2022-10-03T01:08:41.832Z,4.23
2022-10-03T01:11:22.522Z,4.40
2022-10-03T01:14:05.928Z,4.60
2022-10-03T01:16:44.850Z,4.43
2022-10-03T01:19:32.912Z,5.00
2022-10-03T01:22:17.210Z,4.63
2022-10-03T01:24:53.566Z,4.93
2022-10-03T01:27:33.151Z,5.00
2022-10-03T01:30:22.989Z,4.40
2022-10-03T01:32:57.445Z,5.10
2022-10-03T01:35:37.520Z,5.47
2022-10-03T01:38:15.565Z,4.67
2022-10-03T01:40:51.515Z,4.67
2022-10-03T01:43:22.320Z,4.83
2022-10-03T01:46:02.020Z,5.23
2022-10-03T01:48:41.218Z,5.00
2022-10-03T01:51:12.906Z,5.60
2022-10-03T01:53:51.315Z,5.27
2022-10-03T01:56:26.798Z,4.77
2022-10-03T01:59:01.480Z,5.53
2022-10-03T02:01:44.763Z,5.93
2022-10-03T02:04:21.720Z,5.23
2022-10-03T02:06:59.561Z,6.03
2022-10-03T02:09:36.455Z,5.87
2022-10-03T02:12:10.181Z,6.53
2022-10-03T02:14:54.616Z,6.70
2022-10-03T02:17:30.504Z,5.87
2022-10-03T02:20:07.931Z,6.17
2022-10-03T02:22:42.575Z,5.70
2022-10-03T02:25:22.864Z,6.07
2022-10-03T02:28:21.649Z,5.43
2022-10-03T02:31:33.393Z,6.30
2022-10-03T02:34:25.514Z,5.93
2022-10-03T02:37:38.287Z,6.77
2022-10-03T02:40:37.122Z,6.57
2022-10-03T02:43:26.379Z,6.40
2022-10-03T02:46:41.129Z,5.97
2022-10-03T02:49:44.718Z,5.83
2022-10-03T02:52:26.659Z,6.80
2022-10-03T02:55:16.898Z,6.53
2022-10-03T02:58:17.286Z,6.23
2022-10-03T03:01:20.784Z,6.13
2022-10-03T03:04:11.866Z,6.30
2022-10-03T03:06:58.608Z,6.27
2022-10-03T03:10:01.578Z,6.27
2022-10-03T03:12:56.626Z,5.70
2022-10-03T03:16:11.502Z,6.03
2022-10-03T03:18:45.338Z,6.87
2022-10-03T03:21:22.185Z,6.23
2022-10-03T03:24:15.666Z,5.93
2022-10-03T03:27:05.949Z,6.57
2022-10-03T03:29:43.361Z,5.70
2022-10-03T03:32:24.348Z,7.27
2022-10-03T03:34:59.918Z,6.93
2022-10-03T03:37:35.808Z,6.30
2022-10-03T03:40:32.345Z,5.80
2022-10-03T03:43:16.302Z,5.53
2022-10-03T03:45:54.355Z,6.20
2022-10-03T03:48:44.128Z,5.57
2022-10-03T03:51:23.054Z,6.17
2022-10-03T03:54:27.672Z,5.20
2022-10-03T03:57:16.047Z,6.03
2022-10-03T04:00:02.666Z,6.03
2022-10-03T04:02:45.037Z,5.60
2022-10-03T04:05:26.086Z,5.60
2022-10-03T04:08:12.384Z,5.40
2022-10-03T04:10:53.288Z,4.83
2022-10-03T04:13:33.308Z,5.53
2022-10-03T04:16:42.028Z,6.00
2022-10-03T04:19:17.716Z,5.00
2022-10-03T04:22:06.187Z,6.03
2022-10-03T04:24:56.665Z,5.60
2022-10-03T04:27:38.395Z,4.97
2022-10-03T04:30:14.792Z,5.00
2022-10-03T04:32:56.585Z,4.70
2022-10-03T04:35:37.492Z,5.13
2022-10-03T04:38:14.167Z,5.60
2022-10-03T04:40:51.540Z,4.70
2022-10-03T04:43:34.680Z,4.73
2022-10-03T04:46:17.609Z,5.03
2022-10-03T04:48:54.185Z,4.47
2022-10-03T04:51:41.886Z,4.73
2022-10-03T04:54:21.368Z,5.13
2022-10-03T04:56:57.078Z,5.40
2022-10-03T04:59:36.041Z,5.10
2022-10-03T05:02:12.744Z,5.07
2022-10-03T05:04:47.079Z,4.87
2022-10-03T05:07:21.668Z,4.27
2022-10-03T05:09:55.599Z,4.63
2022-10-03T05:12:35.381Z,4.50
2022-10-03T05:15:18.304Z,4.37
2022-10-03T05:17:53.112Z,4.60
2022-10-03T05:20:36.326Z,4.57
2022-10-03T05:23:17.764Z,4.73
2022-10-03T05:26:16.299Z,5.03
2022-10-03T05:28:51.855Z,4.87
2022-10-03T05:31:33.694Z,5.17
2022-10-03T05:34:17.615Z,5.33
2022-10-03T05:37:09.325Z,4.70
2022-10-03T05:39:47.014Z,5.17
2022-10-03T05:42:36.049Z,4.83
2022-10-03T05:45:07.632Z,5.27
2022-10-03T05:47:49.855Z,5.00
2022-10-03T05:50:42.971Z,5.17
2022-10-03T05:53:53.565Z,4.63
2022-10-03T05:56:41.112Z,5.23
2022-10-03T05:59:33.560Z,5.10
2022-10-03T06:02:36.456Z,5.17
2022-10-03T06:05:16.407Z,4.90
2022-10-03T06:08:06.461Z,4.87
2022-10-03T06:10:44.917Z,5.07
2022-10-03T06:13:20.489Z,4.83
2022-10-03T06:16:00.642Z,5.70
2022-10-03T06:19:06.641Z,6.87
2022-10-03T06:22:07.603Z,6.40
2022-10-03T06:25:07.875Z,5.77
2022-10-03T06:28:11.382Z,6.70
2022-10-03T06:31:02.678Z,7.43
2022-10-03T06:34:13.277Z,8.80
2022-10-03T06:37:01.128Z,7.33
2022-10-03T06:40:10.202Z,8.23
2022-10-03T06:43:13.618Z,8.90
2022-10-03T06:46:04.382Z,8.77
2022-10-03T06:49:03.394Z,8.87
2022-10-03T06:51:54.297Z,8.20
2022-10-03T06:55:04.388Z,9.40
2022-10-03T06:58:02.348Z,9.27
2022-10-03T07:00:49.328Z,8.87
2022-10-03T07:03:49.272Z,9.23
2022-10-03T07:06:31.845Z,9.63
2022-10-03T07:09:32.976Z,8.93
2022-10-03T07:12:33.621Z,9.17
2022-10-03T07:15:57.782Z,9.40
2022-10-03T07:18:53.930Z,10.03
2022-10-03T07:21:53.097Z,10.50
2022-10-03T07:24:41.477Z,10.47
2022-10-03T07:27:33.400Z,10.20
2022-10-03T07:30:14.471Z,9.67
2022-10-03T07:33:27.570Z,11.10
2022-10-03T07:36:49.139Z,10.17
2022-10-03T07:39:42.202Z,11.10
2022-10-03T07:42:52.658Z,10.03
2022-10-03T07:45:38.001Z,10.57
2022-10-03T07:48:53.164Z,11.07
2022-10-03T07:51:30.302Z,11.83
2022-10-03T07:54:30.687Z,11.10
2022-10-03T07:57:13.072Z,10.20
2022-10-03T08:00:05.617Z,10.13
2022-10-03T08:03:06.053Z,9.87
2022-10-03T08:05:50.565Z,9.67
2022-10-03T08:08:43.140Z,9.70
2022-10-03T08:11:37.759Z,9.87
2022-10-03T08:14:20.236Z,9.60
2022-10-03T08:17:23.399Z,9.13
2022-10-03T08:20:13.023Z,9.63
2022-10-03T08:22:56.944Z,8.77
2022-10-03T08:25:46.404Z,8.87
2022-10-03T08:28:43.083Z,9.00
2022-10-03T08:31:46.600Z,9.63
2022-10-03T08:34:59.653Z,9.07
2022-10-03T08:37:55.611Z,8.47
2022-10-03T08:40:57.758Z,8.40
2022-10-03T08:43:54.573Z,8.93
2022-10-03T08:46:47.158Z,9.57
2022-10-03T08:49:37.855Z,9.13
2022-10-03T08:52:21.324Z,8.00
2022-10-03T08:55:31.115Z,7.60
2022-10-03T08:58:21.735Z,6.87
2022-10-03T09:01:19.803Z,6.15
2022-10-03T09:04:24.419Z,5.90
2022-10-03T09:07:17.184Z,6.07
2022-10-03T09:10:16.370Z,5.68
2022-10-03T09:13:07.428Z,6.05
2022-10-03T09:16:08.163Z,5.30
2022-10-03T09:18:56.865Z,5.95
2022-10-03T09:21:51.423Z,5.82
2022-10-03T09:24:51.325Z,4.20
2022-10-03T09:27:44.413Z,3.83
2022-10-03T09:30:23.982Z,3.60
2022-10-03T09:33:45.218Z,3.08
2022-10-03T09:36:37.232Z,2.90
2022-10-03T09:39:26.390Z,2.33
2022-10-03T09:42:26.820Z,3.03
2022-10-03T09:45:35.001Z,4.17
2022-10-03T09:48:17.638Z,2.87
2022-10-03T09:51:15.347Z,1.87
2022-10-03T09:54:12.513Z,2.80
2022-10-03T09:57:04.182Z,2.50
2022-10-03T09:59:46.397Z,1.80
2022-10-03T10:02:41.666Z,2.07
2022-10-03T10:05:47.576Z,1.87
2022-10-03T10:08:48.584Z,2.30
2022-10-03T10:11:42.228Z,2.30
2022-10-03T10:14:25.729Z,2.97
2022-10-03T10:17:38.870Z,2.43
2022-10-03T10:20:23.774Z,1.90
2022-10-03T10:23:34.364Z,1.83
2022-10-03T10:26:46.821Z,2.00
2022-10-03T10:29:40.895Z,1.87
2022-10-03T10:32:54.413Z,1.93
2022-10-03T10:36:02.310Z,1.73
2022-10-03T10:39:02.759Z,1.90
2022-10-03T10:42:03.610Z,1.50
2022-10-03T10:45:03.597Z,1.50
2022-10-03T10:48:16.835Z,1.50
2022-10-03T10:51:23.303Z,1.57
2022-10-03T10:54:48.985Z,1.67
2022-10-03T10:57:26.746Z,1.70
2022-10-03T11:00:29.185Z,2.00
2022-10-03T11:03:30.271Z,1.87
2022-10-03T11:06:32.474Z,2.67
2022-10-03T11:09:38.196Z,1.80
2022-10-03T11:12:45.666Z,2.87
2022-10-03T11:15:43.393Z,2.07
2022-10-03T11:18:45.868Z,2.20
2022-10-03T11:22:00.598Z,2.00
2022-10-03T11:24:56.647Z,2.30
2022-10-03T11:27:59.398Z,1.60
2022-10-03T11:31:14.822Z,1.20
2022-10-03T11:34:23.702Z,1.67
2022-10-03T11:37:07.672Z,1.87
2022-10-03T11:39:48.156Z,2.00
2022-10-03T11:42:32.791Z,1.37
2022-10-03T11:45:03.517Z,1.73
2022-10-03T11:47:52.680Z,1.50
2022-10-03T11:50:36.401Z,2.17
2022-10-03T11:53:15.872Z,2.03
2022-10-03T11:55:48.443Z,3.00
2022-10-03T11:58:33.952Z,2.00
2022-10-03T12:01:27.844Z,1.67
2022-10-03T12:04:03.173Z,1.60
2022-10-03T12:07:18.134Z,1.90
2022-10-03T12:09:57.039Z,2.03
2022-10-03T12:12:35.930Z,1.80
2022-10-03T12:15:18.102Z,2.53
2022-10-03T12:17:55.537Z,2.07
2022-10-03T12:20:28.530Z,2.50
2022-10-03T12:23:03.493Z,2.90
2022-10-03T12:25:34.778Z,2.30
2022-10-03T12:28:16.385Z,2.83
2022-10-03T12:30:50.427Z,2.30
2022-10-03T12:33:44.691Z,2.77
2022-10-03T12:36:16.138Z,2.40
2022-10-03T12:39:10.403Z,2.93
2022-10-03T12:42:06.065Z,2.30
2022-10-03T12:44:47.638Z,2.10
2022-10-03T12:47:51.040Z,2.17
2022-10-03T12:50:31.033Z,2.23
2022-10-03T12:53:25.176Z,2.70
2022-10-03T12:56:07.994Z,2.67
2022-10-03T12:58:49.095Z,2.47
2022-10-03T13:01:26.993Z,3.30
2022-10-03T13:03:58.236Z,3.30
2022-10-03T13:07:01.699Z,3.10
2022-10-03T13:09:42.786Z,2.70
2022-10-03T13:12:25.523Z,2.60
2022-10-03T13:15:41.496Z,2.47
2022-10-03T13:18:22.502Z,2.57
2022-10-03T13:20:59.746Z,2.67
2022-10-03T13:23:38.145Z,2.50
2022-10-03T13:26:17.913Z,2.57
2022-10-03T13:29:13.173Z,2.50
2022-10-03T13:31:56.047Z,2.70
2022-10-03T13:34:28.720Z,2.73
2022-10-03T13:37:04.922Z,2.93
2022-10-03T13:39:46.049Z,2.90
2022-10-03T13:42:19.258Z,2.67
2022-10-03T13:44:54.424Z,2.27
2022-10-03T13:47:39.726Z,2.47
2022-10-03T13:50:16.934Z,2.10
2022-10-03T13:52:47.555Z,2.50
2022-10-03T13:55:26.324Z,2.77
2022-10-03T13:58:11.478Z,2.67
2022-10-03T14:00:52.416Z,2.60
2022-10-03T14:03:28.634Z,2.83
2022-10-03T14:06:06.306Z,2.63
2022-10-03T14:09:00.071Z,2.70
2022-10-03T14:11:39.588Z,2.77
2022-10-03T14:14:34.321Z,2.67
2022-10-03T14:17:10.181Z,2.43
2022-10-03T14:19:52.289Z,2.50
2022-10-03T14:22:43.211Z,2.20
2022-10-03T14:25:22.337Z,2.40
2022-10-03T14:27:55.403Z,2.50
2022-10-03T14:30:25.255Z,2.90
2022-10-03T14:33:10.800Z,3.27
2022-10-03T14:35:44.057Z,3.40
2022-10-03T14:39:00.629Z,3.40
2022-10-03T14:41:39.997Z,3.70
2022-10-03T14:44:13.489Z,3.33
2022-10-03T14:46:47.368Z,4.27
2022-10-03T14:49:48.490Z,3.33
2022-10-03T14:52:21.709Z,3.33
2022-10-03T14:54:54.308Z,3.87
2022-10-03T14:57:39.650Z,3.13
2022-10-03T15:00:27.864Z,3.83
2022-10-03T15:02:55.916Z,3.50
2022-10-03T15:05:36.295Z,3.77
2022-10-03T15:08:14.416Z,3.40
2022-10-03T15:10:46.094Z,4.30
2022-10-03T15:13:19.073Z,4.17
2022-10-03T15:15:48.724Z,4.57
2022-10-03T15:18:19.521Z,4.70
2022-10-03T15:20:49.191Z,3.47
2022-10-03T15:23:22.069Z,4.70
2022-10-03T15:25:54.659Z,3.90
2022-10-03T15:28:26.211Z,4.53
2022-10-03T15:30:56.692Z,4.50
2022-10-03T15:33:32.215Z,5.10
2022-10-03T15:36:14.570Z,4.87
2022-10-03T15:38:46.604Z,5.10
2022-10-03T15:41:17.569Z,5.30
2022-10-03T15:43:52.306Z,5.20
2022-10-03T15:46:30.336Z,4.87
2022-10-03T15:49:02.369Z,5.20
2022-10-03T15:51:32.812Z,5.23
2022-10-03T15:54:02.609Z,5.17
2022-10-03T15:56:37.916Z,5.10
2022-10-03T15:59:09.506Z,4.80
2022-10-03T16:01:40.486Z,5.37
2022-10-03T16:04:17.006Z,5.17
2022-10-03T16:06:50.928Z,4.63
2022-10-03T16:09:27.389Z,4.90
2022-10-03T16:12:08.927Z,5.13
2022-10-03T16:14:42.698Z,4.37
2022-10-03T16:17:17.615Z,4.73
2022-10-03T16:19:54.161Z,4.90
2022-10-03T16:22:25.999Z,5.47
2022-10-03T16:25:07.394Z,5.80
2022-10-03T16:27:41.442Z,5.60
2022-10-03T16:30:29.090Z,5.50
2022-10-03T16:33:17.623Z,6.30
2022-10-03T16:35:48.964Z,5.03
2022-10-03T16:38:24.357Z,6.00
2022-10-03T16:40:56.500Z,5.60
2022-10-03T16:43:26.660Z,5.30
2022-10-03T16:45:56.534Z,6.00
2022-10-03T16:48:45.615Z,5.53
2022-10-03T16:51:20.999Z,5.73
2022-10-03T16:53:51.629Z,5.43
2022-10-03T16:56:24.239Z,6.47
2022-10-03T16:58:55.618Z,6.23
2022-10-03T17:01:32.977Z,6.70
2022-10-03T17:04:20.666Z,5.77
2022-10-03T17:06:50.241Z,5.57
2022-10-03T17:09:25.784Z,6.77
2022-10-03T17:11:56.449Z,6.20
2022-10-03T17:14:28.916Z,5.23
2022-10-03T17:17:02.822Z,5.67
2022-10-03T17:19:35.564Z,6.10
2022-10-03T17:22:14.155Z,5.57
2022-10-03T17:24:47.785Z,5.27
2022-10-03T17:27:22.652Z,5.90
2022-10-03T17:29:58.345Z,5.87
2022-10-03T17:32:31.534Z,6.67
2022-10-03T17:35:04.318Z,6.40
2022-10-03T17:38:44.485Z,7.47
2022-10-03T17:41:14.956Z,7.67
2022-10-03T17:43:49.227Z,7.00
2022-10-03T17:46:24.499Z,7.73
2022-10-03T17:48:56.253Z,6.60
2022-10-03T17:51:32.406Z,6.60
2022-10-03T17:54:04.191Z,6.80
2022-10-03T17:56:34.227Z,7.20
2022-10-03T17:59:05.971Z,7.20
2022-10-03T18:01:40.492Z,6.80
2022-10-03T18:04:17.202Z,6.50
2022-10-03T18:06:48.715Z,7.07
2022-10-03T18:09:26.307Z,5.97
2022-10-03T18:11:59.999Z,7.70
2022-10-03T18:14:37.525Z,8.30
2022-10-03T18:17:13.482Z,9.20
2022-10-03T18:19:55.815Z,9.00
2022-10-03T18:22:31.501Z,8.97
2022-10-03T18:25:28.178Z,10.33
2022-10-03T18:28:14.870Z,9.23
2022-10-03T18:30:48.061Z,9.57
2022-10-03T18:33:20.723Z,9.50
2022-10-03T18:35:50.452Z,9.93
2022-10-03T18:38:22.145Z,9.50
2022-10-03T18:40:53.430Z,8.67
2022-10-03T18:43:29.295Z,9.57
2022-10-03T18:46:15.378Z,8.00
2022-10-03T18:49:30.132Z,8.00
2022-10-03T18:51:57.945Z,9.23
2022-10-03T18:54:35.953Z,8.63
2022-10-03T18:57:10.417Z,9.40
2022-10-03T18:59:46.380Z,10.30
2022-10-03T19:02:21.386Z,10.83
2022-10-03T19:04:55.466Z,12.17
2022-10-03T19:07:25.577Z,10.53
2022-10-03T19:10:19.389Z,9.53
2022-10-03T19:12:49.997Z,9.33
2022-10-03T19:15:22.369Z,8.73
2022-10-03T19:18:04.071Z,9.03
2022-10-03T19:20:37.808Z,8.33
2022-10-03T19:23:10.623Z,9.13
2022-10-03T19:25:41.270Z,9.30
2022-10-03T19:28:18.091Z,9.17
2022-10-03T19:30:47.529Z,9.30
2022-10-03T19:33:21.757Z,8.23
2022-10-03T19:35:54.443Z,9.37
2022-10-03T19:38:27.499Z,8.87
2022-10-03T19:41:00.178Z,9.20
2022-10-03T19:43:37.100Z,9.80
2022-10-03T19:46:13.845Z,8.10
2022-10-03T19:48:49.094Z,8.70
2022-10-03T19:51:25.251Z,9.53
2022-10-03T19:53:54.865Z,8.30
2022-10-03T19:56:25.310Z,9.07
2022-10-03T19:59:02.433Z,8.37
2022-10-03T20:01:36.351Z,8.60
2022-10-03T20:04:04.012Z,9.43
2022-10-03T20:06:39.619Z,9.60
2022-10-03T20:09:17.933Z,9.33
2022-10-03T20:11:47.535Z,9.53
2022-10-03T20:14:17.425Z,10.13
2022-10-03T20:16:49.391Z,9.73
2022-10-03T20:19:23.458Z,11.00
2022-10-03T20:21:57.577Z,10.37
2022-10-03T20:24:32.723Z,10.60
2022-10-03T20:27:12.197Z,10.00
2022-10-03T20:29:46.970Z,11.37
2022-10-03T20:32:17.319Z,10.30
2022-10-03T20:34:52.294Z,11.20
2022-10-03T20:37:38.343Z,10.73
2022-10-03T20:40:20.887Z,11.03
2022-10-03T20:42:50.662Z,10.57
2022-10-03T20:45:23.184Z,10.87
2022-10-03T20:47:59.298Z,11.13
2022-10-03T20:50:31.606Z,11.63
2022-10-03T20:53:02.684Z,11.00
2022-10-03T20:55:35.683Z,11.27
2022-10-03T20:58:13.505Z,11.70
2022-10-03T21:00:49.295Z,11.20
2022-10-03T21:03:27.447Z,11.03
2022-10-03T21:05:58.540Z,10.20
2022-10-03T21:08:30.921Z,11.57
2022-10-03T21:11:02.063Z,11.20
2022-10-03T21:13:34.359Z,11.40
2022-10-03T21:16:04.038Z,11.57
2022-10-03T21:18:35.713Z,11.83
2022-10-03T21:21:08.730Z,13.10
2022-10-03T21:23:42.421Z,15.03
2022-10-03T21:26:11.747Z,14.43
2022-10-03T21:28:39.556Z,18.67
2022-10-03T21:31:38.781Z,16.47
2022-10-03T21:34:16.883Z,16.40
2022-10-03T21:36:52.747Z,15.80
2022-10-03T21:39:33.487Z,15.37
2022-10-03T21:42:11.735Z,13.63
2022-10-03T21:44:55.379Z,14.37
2022-10-03T21:47:34.548Z,14.10
2022-10-03T21:50:06.840Z,12.90
2022-10-03T21:52:49.453Z,12.23
2022-10-03T21:55:51.824Z,11.83
2022-10-03T21:58:36.637Z,12.43
2022-10-03T22:01:12.041Z,12.00
2022-10-03T22:03:46.379Z,11.40
2022-10-03T22:06:20.073Z,11.67
2022-10-03T22:08:48.971Z,10.83
2022-10-03T22:11:30.895Z,11.43
2022-10-03T22:14:10.192Z,10.57
2022-10-03T22:16:46.322Z,9.80
2022-10-03T22:19:21.409Z,9.73
2022-10-03T22:22:18.688Z,10.00
2022-10-03T22:24:56.564Z,9.63
2022-10-03T22:27:33.535Z,10.37
2022-10-03T22:30:06.206Z,9.33
2022-10-03T22:32:39.871Z,9.77
2022-10-03T22:35:19.975Z,10.30
2022-10-03T22:37:47.853Z,9.07
2022-10-03T22:40:15.694Z,9.67
2022-10-03T22:42:56.603Z,8.90
2022-10-03T22:45:28.113Z,8.77
2022-10-03T22:47:59.493Z,8.50
2022-10-03T22:50:32.335Z,8.43
2022-10-03T22:53:02.132Z,9.30
2022-10-03T22:55:31.469Z,8.37
2022-10-03T22:58:02.094Z,8.00
2022-10-03T23:00:35.640Z,8.67
2022-10-03T23:03:08.036Z,8.27
2022-10-03T23:05:57.540Z,8.97
2022-10-03T23:08:36.842Z,8.00
2022-10-03T23:11:10.579Z,8.53
2022-10-03T23:13:42.048Z,8.40
2022-10-03T23:16:23.442Z,8.20
2022-10-03T23:19:05.345Z,8.37
2022-10-03T23:21:34.264Z,8.57
2022-10-03T23:24:08.394Z,7.87
2022-10-03T23:27:23.569Z,7.53
2022-10-03T23:30:53.897Z,7.53
2022-10-03T23:33:53.439Z,7.80
2022-10-03T23:36:25.263Z,8.07
2022-10-03T23:39:01.507Z,7.70
2022-10-03T23:41:58.682Z,8.00
2022-10-03T23:44:49.333Z,8.57
2022-10-03T23:47:21.278Z,8.93
2022-10-03T23:49:51.290Z,7.90
2022-10-03T23:52:23.662Z,7.47
2022-10-03T23:54:54.337Z,8.23
2022-10-03T23:57:26.538Z,8.53
2022-10-03T23:59:54.139Z,7.80
